Toyo Maru — JI3710 — position and weather

sailwx.info

Track history (hours):
 
Tides and Currents Weather Stations Pressure Air Temp Water Temp Dewpoint Dewpoint Depression Visibility Wind Speed Wind Dir Waves Ship Positions

Toyo Maru

Last reported at 2014-Sep-22 10:32 UTC. Time now 2014-Sep-23 04:21 UTC.
Position N 35°11' E 139°45'.

Length 125 m; draft 6 m.

Type: Cargo ship. MMSI: 431401953.

Date/timePositionNaut miles runAvg speedWind from/ knotsBaromVisibWave heightAir tempDewpointWater temp
2014-Sep-22 10:32N 35°11' E 139°45'1313.0
2014-Sep-22 09:34N 35°24' E 139°42'15 1.0
2014-Sep-21 18:33N 35°32' E 139°58'1616.0
2014-Sep-21 17:33N 35°21' E 139°45'1513.8
2014-Sep-21 16:29N 35°06' E 139°43'25110.5
2014-Sep-20 16:32N 34°05' E 134°47'11315.7
2014-Sep-20 09:21N 34°02' E 132°31'1316.5
2014-Sep-20 08:33N 34°13' E 132°22'10 9.8
2014-Sep-20 07:33N 34°21' E 132°29'0 0.0
2014-Sep-20 06:32N 34°21' E 132°29'0 0.0
2014-Sep-20 05:32N 34°21' E 132°29'0 0.0
2014-Sep-20 04:32N 34°21' E 132°29'0 0.2
2014-Sep-20 03:33N 34°21' E 132°29'6 5.5
2014-Sep-20 02:31N 34°21' E 132°22'0 0.0
2014-Sep-20 01:28N 34°21' E 132°22'6 6.5
2014-Sep-20 00:33N 34°21' E 132°29'1 1.4
2014-Sep-19 23:31N 34°21' E 132°31'0 0.0
2014-Sep-19 22:31N 34°21' E 132°31'0 0.0
2014-Sep-19 20:31N 34°21' E 132°31'0 0.0
2014-Sep-19 19:31N 34°21' E 132°31'0 0.0
2014-Sep-19 18:25N 34°21' E 132°31'0 0.0
2014-Sep-19 17:10N 34°21' E 132°31'0 0.1
2014-Sep-19 16:31N 34°21' E 132°31'0 0.0
2014-Sep-19 15:31N 34°21' E 132°31'7 7.1
2014-Sep-19 14:34N 34°18' E 132°24'1712.5
2014-Sep-19 13:10N 34°04' E 132°37'35813.5
2014-Sep-18 10:33N 35°10' E 139°45'1414.1
2014-Sep-18 09:33N 35°24' E 139°43'1818.2
2014-Sep-18 08:33N 35°34' E 140°01'5 4.5
2014-Sep-18 07:33N 35°36' E 140°06'0 0.0
2014-Sep-18 06:32N 35°36' E 140°06'0 0.0
2014-Sep-18 05:33N 35°36' E 140°06'1 1.3
2014-Sep-18 04:33N 35°37' E 140°05'0 0.0
2014-Sep-18 03:32N 35°37' E 140°05'0 0.0
2014-Sep-18 02:32N 35°37' E 140°05'0 0.0
2014-Sep-18 01:32N 35°37' E 140°05'0 0.0
2014-Sep-18 00:32N 35°37' E 140°05'0 0.0
2014-Sep-17 23:26N 35°37' E 140°05'0 0.0
2014-Sep-17 22:32N 35°37' E 140°05'0 0.0
2014-Sep-17 21:32N 35°37' E 140°05'0 0.0
2014-Sep-17 20:20N 35°37' E 140°05'0 0.0
2014-Sep-17 19:32N 35°37' E 140°05'0 0.0
2014-Sep-17 18:33N 35°37' E 140°05'10 9.9
2014-Sep-17 17:33N 35°31' E 139°55'1514.9
2014-Sep-17 16:33N 35°19' E 139°44'1414.0
2014-Sep-17 15:33N 35°05' E 139°45'  
2014-Sep-14 07:33N 35°08' E 139°44'1413.7
2014-Sep-14 06:33N 35°21' E 139°42'1717.5
2014-Sep-14 05:33N 35°33' E 139°59'7 6.9
2014-Sep-14 04:33N 35°36' E 140°06'0 0.0
2014-Sep-14 03:33N 35°36' E 140°06'1 1.3
2014-Sep-14 02:33N 35°37' E 140°05'0 0.0
2014-Sep-14 01:31N 35°37' E 140°05'0 0.0
2014-Sep-13 21:31N 35°37' E 140°05'0 0.0
2014-Sep-13 20:31N 35°37' E 140°05'0 0.0
2014-Sep-13 19:25N 35°37' E 140°05'0 0.0
2014-Sep-13 18:31N 35°37' E 140°05'0 0.0
2014-Sep-13 17:25N 35°37' E 140°05'0 0.0
2014-Sep-13 16:25N 35°37' E 140°05'0 0.0
2014-Sep-13 15:31N 35°37' E 140°05'0 0.0
2014-Sep-13 14:31N 35°37' E 140°05'0 0.0
2014-Sep-13 13:31N 35°37' E 140°05'0 0.0
2014-Sep-13 12:31N 35°37' E 140°05'6 6.4
2014-Sep-13 11:33N 35°33' E 139°59'1616.1
2014-Sep-13 10:33N 35°22' E 139°45'1413.6
2014-Sep-13 09:32N 35°08' E 139°45'25315.3
2014-Sep-12 17:03N 34°04' E 134°48'  
Track history (hours):
 
Tides and Currents Weather Stations Pressure Air Temp Water Temp Dewpoint Dewpoint Depression Visibility Wind Speed Wind Dir Waves Ship Positions

Toyo Maru

Last reported at 2014-Sep-22 10:32 UTC. Time now 2014-Sep-23 04:21 UTC.
Position N 35°11' E 139°45'.

Length 125 m; draft 6 m.

Type: Cargo ship. MMSI: 431401953.

Date/timePositionNaut miles runAvg speedWind from/ knotsBaromVisibWave heightAir tempDewpointWater temp
2014-Sep-22 10:32N 35°11' E 139°45'1313.0
2014-Sep-22 09:34N 35°24' E 139°42'15 1.0
2014-Sep-21 18:33N 35°32' E 139°58'1616.0
2014-Sep-21 17:33N 35°21' E 139°45'1513.8
2014-Sep-21 16:29N 35°06' E 139°43'25110.5
2014-Sep-20 16:32N 34°05' E 134°47'11315.7
2014-Sep-20 09:21N 34°02' E 132°31'1316.5
2014-Sep-20 08:33N 34°13' E 132°22'10 9.8
2014-Sep-20 07:33N 34°21' E 132°29'0 0.0
2014-Sep-20 06:32N 34°21' E 132°29'0 0.0
2014-Sep-20 05:32N 34°21' E 132°29'0 0.0
2014-Sep-20 04:32N 34°21' E 132°29'0 0.2
2014-Sep-20 03:33N 34°21' E 132°29'6 5.5
2014-Sep-20 02:31N 34°21' E 132°22'0 0.0
2014-Sep-20 01:28N 34°21' E 132°22'6 6.5
2014-Sep-20 00:33N 34°21' E 132°29'1 1.4
2014-Sep-19 23:31N 34°21' E 132°31'0 0.0
2014-Sep-19 22:31N 34°21' E 132°31'0 0.0
2014-Sep-19 20:31N 34°21' E 132°31'0 0.0
2014-Sep-19 19:31N 34°21' E 132°31'0 0.0
2014-Sep-19 18:25N 34°21' E 132°31'0 0.0
2014-Sep-19 17:10N 34°21' E 132°31'0 0.1
2014-Sep-19 16:31N 34°21' E 132°31'0 0.0
2014-Sep-19 15:31N 34°21' E 132°31'7 7.1
2014-Sep-19 14:34N 34°18' E 132°24'1712.5
2014-Sep-19 13:10N 34°04' E 132°37'35813.5
2014-Sep-18 10:33N 35°10' E 139°45'1414.1
2014-Sep-18 09:33N 35°24' E 139°43'1818.2
2014-Sep-18 08:33N 35°34' E 140°01'5 4.5
2014-Sep-18 07:33N 35°36' E 140°06'0 0.0
2014-Sep-18 06:32N 35°36' E 140°06'0 0.0
2014-Sep-18 05:33N 35°36' E 140°06'1 1.3
2014-Sep-18 04:33N 35°37' E 140°05'0 0.0
2014-Sep-18 03:32N 35°37' E 140°05'0 0.0
2014-Sep-18 02:32N 35°37' E 140°05'0 0.0
2014-Sep-18 01:32N 35°37' E 140°05'0 0.0
2014-Sep-18 00:32N 35°37' E 140°05'0 0.0
2014-Sep-17 23:26N 35°37' E 140°05'0 0.0
2014-Sep-17 22:32N 35°37' E 140°05'0 0.0
2014-Sep-17 21:32N 35°37' E 140°05'0 0.0
2014-Sep-17 20:20N 35°37' E 140°05'0 0.0
2014-Sep-17 19:32N 35°37' E 140°05'0 0.0
2014-Sep-17 18:33N 35°37' E 140°05'10 9.9
2014-Sep-17 17:33N 35°31' E 139°55'1514.9
2014-Sep-17 16:33N 35°19' E 139°44'1414.0
2014-Sep-17 15:33N 35°05' E 139°45'  
2014-Sep-14 07:33N 35°08' E 139°44'1413.7
2014-Sep-14 06:33N 35°21' E 139°42'1717.5
2014-Sep-14 05:33N 35°33' E 139°59'7 6.9
2014-Sep-14 04:33N 35°36' E 140°06'0 0.0
2014-Sep-14 03:33N 35°36' E 140°06'1 1.3
2014-Sep-14 02:33N 35°37' E 140°05'0 0.0
2014-Sep-14 01:31N 35°37' E 140°05'0 0.0
2014-Sep-13 21:31N 35°37' E 140°05'0 0.0
2014-Sep-13 20:31N 35°37' E 140°05'0 0.0
2014-Sep-13 19:25N 35°37' E 140°05'0 0.0
2014-Sep-13 18:31N 35°37' E 140°05'0 0.0
2014-Sep-13 17:25N 35°37' E 140°05'0 0.0
2014-Sep-13 16:25N 35°37' E 140°05'0 0.0
2014-Sep-13 15:31N 35°37' E 140°05'0 0.0
2014-Sep-13 14:31N 35°37' E 140°05'0 0.0
2014-Sep-13 13:31N 35°37' E 140°05'0 0.0
2014-Sep-13 12:31N 35°37' E 140°05'6 6.4
2014-Sep-13 11:33N 35°33' E 139°59'1616.1
2014-Sep-13 10:33N 35°22' E 139°45'1413.6
2014-Sep-13 09:32N 35°08' E 139°45'25315.3
2014-Sep-12 17:03N 34°04' E 134°48'  

Dump ship's entire track history